sensor_id;sensor_type;location;lat;lon;timestamp;pressure;altitude;pressure_sealevel;temperature;humidity
31299;BME280;17927;52.350;13.402;2024-01-07T00:02:13;101383.94;;;4.31;52.00
31299;BME280;17927;52.350;13.402;2024-01-07T00:04:40;101386.72;;;4.29;51.83
31299;BME280;17927;52.350;13.402;2024-01-07T00:07:05;101377.91;;;4.27;52.06
31299;BME280;17927;52.350;13.402;2024-01-07T00:09:30;101381.47;;;4.28;51.76
31299;BME280;17927;52.350;13.402;2024-01-07T00:11:55;101392.22;;;4.26;51.81
31299;BME280;17927;52.350;13.402;2024-01-07T00:14:21;101385.16;;;4.25;51.97
31299;BME280;17927;52.350;13.402;2024-01-07T00:16:46;101383.44;;;4.24;52.16
31299;BME280;17927;52.350;13.402;2024-01-07T00:19:11;101398.63;;;4.23;51.68
31299;BME280;17927;52.350;13.402;2024-01-07T00:21:36;101401.31;;;4.23;51.79
31299;BME280;17927;52.350;13.402;2024-01-07T00:24:02;101400.41;;;4.23;51.53
31299;BME280;17927;52.350;13.402;2024-01-07T00:26:27;101388.94;;;4.21;51.72
31299;BME280;17927;52.350;13.402;2024-01-07T00:28:52;101395.28;;;4.20;51.63
31299;BME280;17927;52.350;13.402;2024-01-07T00:31:17;101405.88;;;4.21;51.67
31299;BME280;17927;52.350;13.402;2024-01-07T00:33:43;101403.28;;;4.20;51.74
31299;BME280;17927;52.350;13.402;2024-01-07T00:36:08;101409.59;;;4.19;51.64
31299;BME280;17927;52.350;13.402;2024-01-07T00:38:33;101410.53;;;4.18;51.44
31299;BME280;17927;52.350;13.402;2024-01-07T00:40:58;101415.09;;;4.16;51.64
31299;BME280;17927;52.350;13.402;2024-01-07T00:43:24;101415.09;;;4.16;51.63
31299;BME280;17927;52.350;13.402;2024-01-07T00:45:49;101417.94;;;4.13;51.34
31299;BME280;17927;52.350;13.402;2024-01-07T00:48:14;101425.97;;;4.13;51.46
31299;BME280;17927;52.350;13.402;2024-01-07T00:50:40;101424.22;;;4.11;51.42
31299;BME280;17927;52.350;13.402;2024-01-07T00:53:05;101431.31;;;4.13;51.58
31299;BME280;17927;52.350;13.402;2024-01-07T00:55:30;101438.38;;;4.14;51.62
31299;BME280;17927;52.350;13.402;2024-01-07T00:57:55;101428.63;;;4.13;51.38
31299;BME280;17927;52.350;13.402;2024-01-07T01:00:21;101433.13;;;4.12;51.30
31299;BME280;17927;52.350;13.402;2024-01-07T01:02:47;101433.19;;;4.10;51.23
31299;BME280;17927;52.350;13.402;2024-01-07T01:05:12;101446.56;;;4.10;51.30
31299;BME280;17927;52.350;13.402;2024-01-07T01:07:37;101445.72;;;4.10;51.11
31299;BME280;17927;52.350;13.402;2024-01-07T01:10:03;101440.44;;;4.08;51.23
31299;BME280;17927;52.350;13.402;2024-01-07T01:12:28;101447.50;;;4.09;51.23
31299;BME280;17927;52.350;13.402;2024-01-07T01:14:53;101448.56;;;4.07;51.23
31299;BME280;17927;52.350;13.402;2024-01-07T01:17:18;101458.38;;;4.06;51.15
31299;BME280;17927;52.350;13.402;2024-01-07T01:19:44;101452.28;;;4.04;51.16
31299;BME280;17927;52.350;13.402;2024-01-07T01:22:09;101469.31;;;4.02;50.98
31299;BME280;17927;52.350;13.402;2024-01-07T01:24:34;101465.03;;;3.99;51.18
31299;BME280;17927;52.350;13.402;2024-01-07T01:27:00;101472.16;;;3.99;50.95
31299;BME280;17927;52.350;13.402;2024-01-07T01:29:25;101477.50;;;3.99;51.06
31299;BME280;17927;52.350;13.402;2024-01-07T01:31:50;101478.44;;;3.97;51.06
31299;BME280;17927;52.350;13.402;2024-01-07T01:34:15;101479.34;;;3.98;50.76
31299;BME280;17927;52.350;13.402;2024-01-07T01:36:41;101487.44;;;3.96;50.77
31299;BME280;17927;52.350;13.402;2024-01-07T01:39:06;101485.78;;;3.94;50.76
31299;BME280;17927;52.350;13.402;2024-01-07T01:41:32;101493.00;;;3.92;50.64
31299;BME280;17927;52.350;13.402;2024-01-07T01:43:58;101486.88;;;3.90;50.75
31299;BME280;17927;52.350;13.402;2024-01-07T01:46:24;101495.00;;;3.88;50.63
31299;BME280;17927;52.350;13.402;2024-01-07T01:48:50;101494.06;;;3.89;50.67
31299;BME280;17927;52.350;13.402;2024-01-07T01:51:15;101488.63;;;3.91;50.89
31299;BME280;17927;52.350;13.402;2024-01-07T01:53:41;101493.91;;;3.92;50.74
31299;BME280;17927;52.350;13.402;2024-01-07T01:56:06;101499.41;;;3.89;50.74
31299;BME280;17927;52.350;13.402;2024-01-07T01:58:32;101512.88;;;3.88;50.39
31299;BME280;17927;52.350;13.402;2024-01-07T02:00:58;101508.63;;;3.84;50.55
31299;BME280;17927;52.350;13.402;2024-01-07T02:03:23;101504.47;;;3.78;50.42
31299;BME280;17927;52.350;13.402;2024-01-07T02:05:49;101501.16;;;3.73;50.38
31299;BME280;17927;52.350;13.402;2024-01-07T02:08:17;101515.53;;;3.70;50.44
31299;BME280;17927;52.350;13.402;2024-01-07T02:10:43;101519.22;;;3.68;50.33
31299;BME280;17927;52.350;13.402;2024-01-07T02:13:09;101510.34;;;3.67;50.37
31299;BME280;17927;52.350;13.402;2024-01-07T02:15:34;101516.66;;;3.66;50.20
31299;BME280;17927;52.350;13.402;2024-01-07T02:18:00;101512.38;;;3.62;50.20
31299;BME280;17927;52.350;13.402;2024-01-07T02:20:25;101519.56;;;3.61;50.27
31299;BME280;17927;52.350;13.402;2024-01-07T02:22:50;101514.38;;;3.58;50.35
31299;BME280;17927;52.350;13.402;2024-01-07T02:25:16;101520.75;;;3.56;50.09
31299;BME280;17927;52.350;13.402;2024-01-07T02:27:41;101508.38;;;3.53;49.72
31299;BME280;17927;52.350;13.402;2024-01-07T02:30:07;101518.28;;;3.51;49.83
31299;BME280;17927;52.350;13.402;2024-01-07T02:32:32;101516.72;;;3.47;49.78
31299;BME280;17927;52.350;13.402;2024-01-07T02:35:00;101515.16;;;3.43;49.82
31299;BME280;17927;52.350;13.402;2024-01-07T02:37:26;101522.38;;;3.41;49.75
31299;BME280;17927;52.350;13.402;2024-01-07T02:39:51;101516.25;;;3.39;49.86
31299;BME280;17927;52.350;13.402;2024-01-07T02:42:16;101516.38;;;3.35;49.76
31299;BME280;17927;52.350;13.402;2024-01-07T02:44:41;101528.03;;;3.34;49.62
31299;BME280;17927;52.350;13.402;2024-01-07T02:47:07;101520.19;;;3.31;49.80
31299;BME280;17927;52.350;13.402;2024-01-07T02:49:32;101536.34;;;3.28;49.88
31299;BME280;17927;52.350;13.402;2024-01-07T02:51:57;101531.94;;;3.27;49.79
31299;BME280;17927;52.350;13.402;2024-01-07T02:54:22;101539.09;;;3.27;50.00
31299;BME280;17927;52.350;13.402;2024-01-07T02:56:48;101543.56;;;3.26;49.95
31299;BME280;17927;52.350;13.402;2024-01-07T02:59:13;101543.66;;;3.25;49.63
31299;BME280;17927;52.350;13.402;2024-01-07T03:01:38;101545.59;;;3.21;49.79
31299;BME280;17927;52.350;13.402;2024-01-07T03:04:07;101539.50;;;3.19;49.67
31299;BME280;17927;52.350;13.402;2024-01-07T03:06:33;101547.56;;;3.17;49.68
31299;BME280;17927;52.350;13.402;2024-01-07T03:08:58;101545.81;;;3.16;49.62
31299;BME280;17927;52.350;13.402;2024-01-07T03:11:23;101553.94;;;3.15;49.74
31299;BME280;17927;52.350;13.402;2024-01-07T03:13:48;101559.41;;;3.12;49.52
31299;BME280;17927;52.350;13.402;2024-01-07T03:16:21;101555.16;;;3.08;49.59
31299;BME280;17927;52.350;13.402;2024-01-07T03:18:46;101559.00;;;3.02;49.55
31299;BME280;17927;52.350;13.402;2024-01-07T03:21:19;101556.53;;;2.97;49.35
31299;BME280;17927;52.350;13.402;2024-01-07T03:23:45;101558.56;;;2.92;49.55
31299;BME280;17927;52.350;13.402;2024-01-07T03:26:10;101551.66;;;2.88;49.68
31299;BME280;17927;52.350;13.402;2024-01-07T03:28:35;101563.19;;;2.88;49.61
31299;BME280;17927;52.350;13.402;2024-01-07T03:31:12;101562.47;;;2.85;49.44
31299;BME280;17927;52.350;13.402;2024-01-07T03:33:38;101563.47;;;2.82;49.61
31299;BME280;17927;52.350;13.402;2024-01-07T03:36:12;101557.41;;;2.79;49.39
31299;BME280;17927;52.350;13.402;2024-01-07T03:38:38;101569.13;;;2.76;49.48
31299;BME280;17927;52.350;13.402;2024-01-07T03:41:04;101564.78;;;2.73;49.63
31299;BME280;17927;52.350;13.402;2024-01-07T03:43:30;101578.19;;;2.72;49.42
31299;BME280;17927;52.350;13.402;2024-01-07T03:45:55;101571.22;;;2.69;49.49
31299;BME280;17927;52.350;13.402;2024-01-07T03:48:20;101580.19;;;2.67;49.61
31299;BME280;17927;52.350;13.402;2024-01-07T03:50:46;101591.03;;;2.64;49.55
31299;BME280;17927;52.350;13.402;2024-01-07T03:53:11;101589.44;;;2.59;49.45
31299;BME280;17927;52.350;13.402;2024-01-07T03:55:36;101603.00;;;2.55;49.33
31299;BME280;17927;52.350;13.402;2024-01-07T03:58:01;101592.69;;;2.47;49.44
31299;BME280;17927;52.350;13.402;2024-01-07T04:00:28;101596.47;;;2.41;49.56
31299;BME280;17927;52.350;13.402;2024-01-07T04:02:53;101596.56;;;2.40;49.57
31299;BME280;17927;52.350;13.402;2024-01-07T04:05:18;101601.09;;;2.38;49.55
31299;BME280;17927;52.350;13.402;2024-01-07T04:07:43;101610.09;;;2.35;49.33
31299;BME280;17927;52.350;13.402;2024-01-07T04:10:09;101617.28;;;2.33;49.52
31299;BME280;17927;52.350;13.402;2024-01-07T04:12:34;101628.91;;;2.32;49.54
31299;BME280;17927;52.350;13.402;2024-01-07T04:14:59;101621.81;;;2.31;49.41
31299;BME280;17927;52.350;13.402;2024-01-07T04:17:25;101636.97;;;2.31;49.58
31299;BME280;17927;52.350;13.402;2024-01-07T04:19:51;101636.03;;;2.32;49.58
31299;BME280;17927;52.350;13.402;2024-01-07T04:22:16;101633.44;;;2.30;49.53
31299;BME280;17927;52.350;13.402;2024-01-07T04:24:42;101637.03;;;2.29;49.41
31299;BME280;17927;52.350;13.402;2024-01-07T04:27:07;101645.09;;;2.27;49.55
31299;BME280;17927;52.350;13.402;2024-01-07T04:29:32;101650.47;;;2.26;49.55
31299;BME280;17927;52.350;13.402;2024-01-07T04:31:57;101647.91;;;2.24;49.66
31299;BME280;17927;52.350;13.402;2024-01-07T04:34:23;101648.91;;;2.22;49.56
31299;BME280;17927;52.350;13.402;2024-01-07T04:36:49;101648.97;;;2.20;49.48
31299;BME280;17927;52.350;13.402;2024-01-07T04:39:14;101649.88;;;2.19;49.48
31299;BME280;17927;52.350;13.402;2024-01-07T04:41:39;101653.56;;;2.17;49.35
31299;BME280;17927;52.350;13.402;2024-01-07T04:44:05;101644.88;;;2.11;49.37
31299;BME280;17927;52.350;13.402;2024-01-07T04:46:51;101658.09;;;2.15;49.37
31299;BME280;17927;52.350;13.402;2024-01-07T04:49:17;101665.38;;;2.11;49.50
31299;BME280;17927;52.350;13.402;2024-01-07T04:51:42;101657.44;;;2.09;49.38
31299;BME280;17927;52.350;13.402;2024-01-07T04:54:07;101659.22;;;2.09;49.40
31299;BME280;17927;52.350;13.402;2024-01-07T04:56:33;101664.63;;;2.07;49.39
31299;BME280;17927;52.350;13.402;2024-01-07T04:58:58;101661.16;;;2.05;49.37
31299;BME280;17927;52.350;13.402;2024-01-07T05:01:23;101663.88;;;2.04;49.50
31299;BME280;17927;52.350;13.402;2024-01-07T05:03:49;101653.28;;;2.02;49.43
31299;BME280;17927;52.350;13.402;2024-01-07T05:06:14;101664.06;;;1.99;49.39
31299;BME280;17927;52.350;13.402;2024-01-07T05:08:40;101666.81;;;1.97;49.30
31299;BME280;17927;52.350;13.402;2024-01-07T05:11:06;101667.78;;;1.95;49.37
31299;BME280;17927;52.350;13.402;2024-01-07T05:13:31;101660.75;;;1.94;49.44
31299;BME280;17927;52.350;13.402;2024-01-07T05:15:56;101674.13;;;1.92;49.33
31299;BME280;17927;52.350;13.402;2024-01-07T05:18:22;101670.63;;;1.92;49.41
31299;BME280;17927;52.350;13.402;2024-01-07T05:20:48;101672.47;;;1.90;49.36
31299;BME280;17927;52.350;13.402;2024-01-07T05:23:14;101679.59;;;1.89;49.15
31299;BME280;17927;52.350;13.402;2024-01-07T05:25:39;101681.31;;;1.90;49.36
31299;BME280;17927;52.350;13.402;2024-01-07T05:28:04;101683.06;;;1.91;49.33
31299;BME280;17927;52.350;13.402;2024-01-07T05:30:30;101683.94;;;1.92;49.28
31299;BME280;17927;52.350;13.402;2024-01-07T05:32:55;101695.53;;;1.91;49.33
31299;BME280;17927;52.350;13.402;2024-01-07T05:35:20;101696.47;;;1.90;49.23
31299;BME280;17927;52.350;13.402;2024-01-07T05:37:47;101704.56;;;1.87;49.10
31299;BME280;17927;52.350;13.402;2024-01-07T05:40:12;101705.50;;;1.86;49.20
31299;BME280;17927;52.350;13.402;2024-01-07T05:42:37;101706.50;;;1.83;49.30
31299;BME280;17927;52.350;13.402;2024-01-07T05:45:03;101714.50;;;1.83;49.26
31299;BME280;17927;52.350;13.402;2024-01-07T05:47:28;101721.69;;;1.81;49.36
31299;BME280;17927;52.350;13.402;2024-01-07T05:49:53;101717.22;;;1.81;49.35
31299;BME280;17927;52.350;13.402;2024-01-07T05:52:19;101726.09;;;1.82;49.65
31299;BME280;17927;52.350;13.402;2024-01-07T05:54:44;101726.00;;;1.83;49.47
31299;BME280;17927;52.350;13.402;2024-01-07T05:57:10;101738.38;;;1.86;49.49
31299;BME280;17927;52.350;13.402;2024-01-07T05:59:36;101731.31;;;1.85;49.50
31299;BME280;17927;52.350;13.402;2024-01-07T06:02:02;101728.63;;;1.85;49.49
31299;BME280;17927;52.350;13.402;2024-01-07T06:04:27;101726.81;;;1.86;49.48
31299;BME280;17927;52.350;13.402;2024-01-07T06:06:52;101730.38;;;1.86;49.38
31299;BME280;17927;52.350;13.402;2024-01-07T06:09:17;101736.63;;;1.85;49.43
31299;BME280;17927;52.350;13.402;2024-01-07T06:11:42;101744.63;;;1.85;49.24
31299;BME280;17927;52.350;13.402;2024-01-07T06:14:08;101750.88;;;1.84;49.39
31299;BME280;17927;52.350;13.402;2024-01-07T06:16:33;101744.75;;;1.82;49.41
31299;BME280;17927;52.350;13.402;2024-01-07T06:18:58;101748.34;;;1.81;49.30
31299;BME280;17927;52.350;13.402;2024-01-07T06:21:23;101747.44;;;1.80;49.42
31299;BME280;17927;52.350;13.402;2024-01-07T06:23:49;101753.72;;;1.79;49.33
31299;BME280;17927;52.350;13.402;2024-01-07T06:26:15;101748.34;;;1.81;49.40
31299;BME280;17927;52.350;13.402;2024-01-07T06:28:40;101760.84;;;1.79;49.30
31299;BME280;17927;52.350;13.402;2024-01-07T06:31:05;101760.03;;;1.77;49.32
31299;BME280;17927;52.350;13.402;2024-01-07T06:33:30;101758.38;;;1.74;49.06
31299;BME280;17927;52.350;13.402;2024-01-07T06:35:56;101766.38;;;1.74;49.28
31299;BME280;17927;52.350;13.402;2024-01-07T06:38:21;101769.06;;;1.73;49.38
31299;BME280;17927;52.350;13.402;2024-01-07T06:40:46;101759.34;;;1.72;49.35
31299;BME280;17927;52.350;13.402;2024-01-07T06:43:11;101761.06;;;1.73;49.28
31299;BME280;17927;52.350;13.402;2024-01-07T06:45:37;101779.72;;;1.73;49.41
31299;BME280;17927;52.350;13.402;2024-01-07T06:48:02;101778.00;;;1.72;49.38
31299;BME280;17927;52.350;13.402;2024-01-07T06:50:27;101777.13;;;1.71;49.39
31299;BME280;17927;52.350;13.402;2024-01-07T06:52:52;101779.88;;;1.70;49.25
31299;BME280;17927;52.350;13.402;2024-01-07T06:55:18;101794.13;;;1.69;49.54
31299;BME280;17927;52.350;13.402;2024-01-07T06:57:43;101783.47;;;1.69;49.43
31299;BME280;17927;52.350;13.402;2024-01-07T07:00:08;101791.47;;;1.69;49.48
31299;BME280;17927;52.350;13.402;2024-01-07T07:02:34;101787.88;;;1.70;49.50
31299;BME280;17927;52.350;13.402;2024-01-07T07:04:59;101785.22;;;1.70;49.18
31299;BME280;17927;52.350;13.402;2024-01-07T07:07:24;101801.22;;;1.68;49.38
31299;BME280;17927;52.350;13.402;2024-01-07T07:09:50;101802.13;;;1.69;49.40
31299;BME280;17927;52.350;13.402;2024-01-07T07:12:15;101805.63;;;1.69;49.45
31299;BME280;17927;52.350;13.402;2024-01-07T07:14:40;101806.53;;;1.70;49.44
31299;BME280;17927;52.350;13.402;2024-01-07T07:17:05;101805.63;;;1.69;49.47
31299;BME280;17927;52.350;13.402;2024-01-07T07:19:31;101814.56;;;1.68;49.55
31299;BME280;17927;52.350;13.402;2024-01-07T07:21:56;101808.28;;;1.69;49.49
31299;BME280;17927;52.350;13.402;2024-01-07T07:24:21;101816.28;;;1.69;49.60
31299;BME280;17927;52.350;13.402;2024-01-07T07:26:47;101812.69;;;1.70;49.58
31299;BME280;17927;52.350;13.402;2024-01-07T07:29:12;101812.63;;;1.72;49.61
31299;BME280;17927;52.350;13.402;2024-01-07T07:31:37;101829.31;;;1.77;49.56
31299;BME280;17927;52.350;13.402;2024-01-07T07:34:08;101827.38;;;1.80;49.60
31299;BME280;17927;52.350;13.402;2024-01-07T07:36:34;101822.84;;;1.84;49.76
31299;BME280;17927;52.350;13.402;2024-01-07T07:38:59;101831.56;;;1.88;49.62
31299;BME280;17927;52.350;13.402;2024-01-07T07:41:24;101836.72;;;1.92;49.56
31299;BME280;17927;52.350;13.402;2024-01-07T07:43:49;101831.19;;;1.97;49.55
31299;BME280;17927;52.350;13.402;2024-01-07T07:46:15;101827.56;;;2.00;49.66
31299;BME280;17927;52.350;13.402;2024-01-07T07:48:41;101833.63;;;2.03;49.66
31299;BME280;17927;52.350;13.402;2024-01-07T07:51:06;101843.25;;;2.07;49.65
31299;BME280;17927;52.350;13.402;2024-01-07T07:53:31;101850.16;;;2.11;49.56
31299;BME280;17927;52.350;13.402;2024-01-07T07:55:57;101839.38;;;2.15;49.60
31299;BME280;17927;52.350;13.402;2024-01-07T07:58:22;101842.00;;;2.16;49.50
31299;BME280;17927;52.350;13.402;2024-01-07T08:00:47;101845.47;;;2.18;49.51
31299;BME280;17927;52.350;13.402;2024-01-07T08:03:13;101861.34;;;2.21;49.65
31299;BME280;17927;52.350;13.402;2024-01-07T08:05:38;101857.75;;;2.22;49.66
31299;BME280;17927;52.350;13.402;2024-01-07T08:08:05;101866.47;;;2.26;49.67
31299;BME280;17927;52.350;13.402;2024-01-07T08:10:31;101871.66;;;2.31;49.58
31299;BME280;17927;52.350;13.402;2024-01-07T08:12:57;101868.78;;;2.35;49.70
31299;BME280;17927;52.350;13.402;2024-01-07T08:15:22;101865.09;;;2.39;49.66
31299;BME280;17927;52.350;13.402;2024-01-07T08:17:47;101861.47;;;2.40;50.10
31299;BME280;17927;52.350;13.402;2024-01-07T08:20:13;101866.53;;;2.47;49.68
31299;BME280;17927;52.350;13.402;2024-01-07T08:22:38;101865.41;;;2.52;50.00
31299;BME280;17927;52.350;13.402;2024-01-07T08:25:03;101878.44;;;2.60;49.98
31299;BME280;17927;52.350;13.402;2024-01-07T08:27:29;101876.53;;;2.64;49.71
31299;BME280;17927;52.350;13.402;2024-01-07T08:29:55;101881.72;;;2.67;49.79
31299;BME280;17927;52.350;13.402;2024-01-07T08:32:20;101873.59;;;2.70;49.74
31299;BME280;17927;52.350;13.402;2024-01-07T08:34:47;101885.88;;;2.74;49.71
31299;BME280;17927;52.350;13.402;2024-01-07T08:37:12;101894.63;;;2.78;49.67
31299;BME280;17927;52.350;13.402;2024-01-07T08:39:38;101894.50;;;2.81;49.70
31299;BME280;17927;52.350;13.402;2024-01-07T08:42:03;101898.84;;;2.83;49.64
31299;BME280;17927;52.350;13.402;2024-01-07T08:44:29;101896.13;;;2.85;49.63
31299;BME280;17927;52.350;13.402;2024-01-07T08:46:55;101895.03;;;2.89;49.62
31299;BME280;17927;52.350;13.402;2024-01-07T08:49:20;101903.84;;;2.91;49.49
31299;BME280;17927;52.350;13.402;2024-01-07T08:51:45;101896.63;;;2.93;49.58
31299;BME280;17927;52.350;13.402;2024-01-07T08:54:10;101900.03;;;2.97;49.58
31299;BME280;17927;52.350;13.402;2024-01-07T08:56:36;101898.13;;;3.00;49.65
31299;BME280;17927;52.350;13.402;2024-01-07T08:59:01;101893.59;;;3.02;49.54
31299;BME280;17927;52.350;13.402;2024-01-07T09:01:26;101897.00;;;3.06;49.49
31299;BME280;17927;52.350;13.402;2024-01-07T09:03:51;101881.69;;;3.10;49.30
31299;BME280;17927;52.350;13.402;2024-01-07T09:06:16;101887.75;;;3.13;49.47
31299;BME280;17927;52.350;13.402;2024-01-07T09:08:42;101882.25;;;3.18;49.66
31299;BME280;17927;52.350;13.402;2024-01-07T09:11:07;101884.75;;;3.21;49.63
31299;BME280;17927;52.350;13.402;2024-01-07T09:13:36;101884.50;;;3.27;49.69
31299;BME280;17927;52.350;13.402;2024-01-07T09:16:01;101887.91;;;3.31;49.62
31299;BME280;17927;52.350;13.402;2024-01-07T09:18:26;101880.63;;;3.34;49.66
31299;BME280;17927;52.350;13.402;2024-01-07T09:20:51;101896.47;;;3.39;49.65
31299;BME280;17927;52.350;13.402;2024-01-07T09:23:17;101900.78;;;3.42;49.60
31299;BME280;17927;52.350;13.402;2024-01-07T09:25:42;101892.56;;;3.46;49.57
31299;BME280;17927;52.350;13.402;2024-01-07T09:28:07;101891.50;;;3.50;49.61
31299;BME280;17927;52.350;13.402;2024-01-07T09:30:32;101902.75;;;3.57;49.65
31299;BME280;17927;52.350;13.402;2024-01-07T09:32:58;101902.63;;;3.60;49.58
31299;BME280;17927;52.350;13.402;2024-01-07T09:35:23;101898.00;;;3.64;49.43
31299;BME280;17927;52.350;13.402;2024-01-07T09:37:48;101900.47;;;3.69;49.54
31299;BME280;17927;52.350;13.402;2024-01-07T09:40:17;101887.91;;;3.71;49.30
31299;BME280;17927;52.350;13.402;2024-01-07T09:42:43;101892.19;;;3.75;49.32
31299;BME280;17927;52.350;13.402;2024-01-07T09:45:11;101885.91;;;3.76;49.37
31299;BME280;17927;52.350;13.402;2024-01-07T09:47:37;101901.72;;;3.80;49.22
31299;BME280;17927;52.350;13.402;2024-01-07T09:50:03;101891.81;;;3.83;49.30
31299;BME280;17927;52.350;13.402;2024-01-07T09:52:31;101889.00;;;3.86;49.17
31299;BME280;17927;52.350;13.402;2024-01-07T09:54:58;101897.84;;;3.88;49.13
31299;BME280;17927;52.350;13.402;2024-01-07T09:57:26;101893.25;;;3.90;49.11
31299;BME280;17927;52.350;13.402;2024-01-07T09:59:52;101894.06;;;3.92;48.96
31299;BME280;17927;52.350;13.402;2024-01-07T10:02:18;101889.50;;;3.94;49.04
31299;BME280;17927;52.350;13.402;2024-01-07T10:04:43;101896.59;;;3.95;49.13
31299;BME280;17927;52.350;13.402;2024-01-07T10:07:10;101899.13;;;3.98;49.28
31299;BME280;17927;52.350;13.402;2024-01-07T10:09:35;101894.56;;;4.00;49.29
31299;BME280;17927;52.350;13.402;2024-01-07T10:12:00;101898.91;;;4.03;49.08
31299;BME280;17927;52.350;13.402;2024-01-07T10:14:26;101890.81;;;4.04;49.21
31299;BME280;17927;52.350;13.402;2024-01-07T10:16:52;101891.59;;;4.06;48.98
31299;BME280;17927;52.350;13.402;2024-01-07T10:19:23;101881.69;;;4.08;49.05
31299;BME280;17927;52.350;13.402;2024-01-07T10:22:03;101881.63;;;4.10;49.02
31299;BME280;17927;52.350;13.402;2024-01-07T10:24:36;101891.31;;;4.13;49.09
31299;BME280;17927;52.350;13.402;2024-01-07T10:27:05;101896.53;;;4.16;49.20
31299;BME280;17927;52.350;13.402;2024-01-07T10:29:31;101897.38;;;4.16;49.04
31299;BME280;17927;52.350;13.402;2024-01-07T10:31:57;101898.97;;;4.20;48.90
31299;BME280;17927;52.350;13.402;2024-01-07T10:34:23;101885.50;;;4.22;48.99
31299;BME280;17927;52.350;13.402;2024-01-07T10:36:51;101888.94;;;4.25;49.11
31299;BME280;17927;52.350;13.402;2024-01-07T10:39:16;101897.81;;;4.26;49.10
31299;BME280;17927;52.350;13.402;2024-01-07T10:41:42;101904.81;;;4.29;48.94
31299;BME280;17927;52.350;13.402;2024-01-07T10:44:08;101900.34;;;4.29;49.25
31299;BME280;17927;52.350;13.402;2024-01-07T10:46:33;101893.13;;;4.31;49.36
31299;BME280;17927;52.350;13.402;2024-01-07T10:49:00;101891.22;;;4.33;49.00
31299;BME280;17927;52.350;13.402;2024-01-07T10:51:28;101898.31;;;4.34;49.26
31299;BME280;17927;52.350;13.402;2024-01-07T10:53:55;101892.78;;;4.37;49.24
31299;BME280;17927;52.350;13.402;2024-01-07T10:56:25;101881.16;;;4.38;49.31
31299;BME280;17927;52.350;13.402;2024-01-07T10:58:55;101882.88;;;4.39;49.16
31299;BME280;17927;52.350;13.402;2024-01-07T11:01:22;101878.34;;;4.41;49.27
31299;BME280;17927;52.350;13.402;2024-01-07T11:04:01;101887.16;;;4.44;49.52
31299;BME280;17927;52.350;13.402;2024-01-07T11:06:52;101888.00;;;4.44;49.22
31299;BME280;17927;52.350;13.402;2024-01-07T11:09:30;101881.81;;;4.44;49.22
31299;BME280;17927;52.350;13.402;2024-01-07T11:11:59;101880.88;;;4.45;49.42
31299;BME280;17927;52.350;13.402;2024-01-07T11:14:37;101875.44;;;4.46;49.24
31299;BME280;17927;52.350;13.402;2024-01-07T11:17:04;101894.09;;;4.48;49.24
31299;BME280;17927;52.350;13.402;2024-01-07T11:19:30;101870.81;;;4.50;49.39
31299;BME280;17927;52.350;13.402;2024-01-07T11:22:27;101868.91;;;4.52;49.11
31299;BME280;17927;52.350;13.402;2024-01-07T11:24:56;101874.34;;;4.50;49.55
31299;BME280;17927;52.350;13.402;2024-01-07T11:27:23;101876.88;;;4.53;49.30
31299;BME280;17927;52.350;13.402;2024-01-07T11:29:55;101877.56;;;4.57;49.42
31299;BME280;17927;52.350;13.402;2024-01-07T11:32:22;101874.84;;;4.59;49.29
31299;BME280;17927;52.350;13.402;2024-01-07T11:34:48;101871.19;;;4.60;49.31
31299;BME280;17927;52.350;13.402;2024-01-07T11:37:17;101879.16;;;4.61;49.62
31299;BME280;17927;52.350;13.402;2024-01-07T11:39:43;101874.66;;;4.62;49.62
31299;BME280;17927;52.350;13.402;2024-01-07T11:42:10;101857.75;;;4.61;49.62
31299;BME280;17927;52.350;13.402;2024-01-07T11:44:37;101874.66;;;4.62;49.50
31299;BME280;17927;52.350;13.402;2024-01-07T11:47:05;101872.78;;;4.64;49.50
31299;BME280;17927;52.350;13.402;2024-01-07T11:49:33;101875.41;;;4.65;49.36
31299;BME280;17927;52.350;13.402;2024-01-07T11:51:59;101877.97;;;4.67;49.69
31299;BME280;17927;52.350;13.402;2024-01-07T11:54:24;101869.88;;;4.68;49.49
31299;BME280;17927;52.350;13.402;2024-01-07T11:56:49;101870.75;;;4.69;49.58
31299;BME280;17927;52.350;13.402;2024-01-07T11:59:15;101881.38;;;4.70;49.68
31299;BME280;17927;52.350;13.402;2024-01-07T12:01:40;101872.41;;;4.71;49.71
31299;BME280;17927;52.350;13.402;2024-01-07T12:04:05;101876.81;;;4.72;49.54
31299;BME280;17927;52.350;13.402;2024-01-07T12:06:31;101873.97;;;4.76;49.70
31299;BME280;17927;52.350;13.402;2024-01-07T12:08:56;101868.53;;;4.77;49.57
31299;BME280;17927;52.350;13.402;2024-01-07T12:11:21;101865.84;;;4.77;49.64
31299;BME280;17927;52.350;13.402;2024-01-07T12:13:46;101866.75;;;4.78;49.66
31299;BME280;17927;52.350;13.402;2024-01-07T12:16:12;101863.97;;;4.79;49.72
31299;BME280;17927;52.350;13.402;2024-01-07T12:18:38;101849.78;;;4.77;49.65
31299;BME280;17927;52.350;13.402;2024-01-07T12:21:04;101864.06;;;4.78;49.88
31299;BME280;17927;52.350;13.402;2024-01-07T12:23:34;101858.72;;;4.78;49.41
31299;BME280;17927;52.350;13.402;2024-01-07T12:26:07;101863.13;;;4.79;49.60
31299;BME280;17927;52.350;13.402;2024-01-07T12:28:33;101859.56;;;4.78;49.70
31299;BME280;17927;52.350;13.402;2024-01-07T12:30:58;101868.38;;;4.80;49.78
31299;BME280;17927;52.350;13.402;2024-01-07T12:33:26;101864.75;;;4.81;49.68
31299;BME280;17927;52.350;13.402;2024-01-07T12:35:51;101874.53;;;4.82;49.72
31299;BME280;17927;52.350;13.402;2024-01-07T12:38:23;101874.53;;;4.82;49.73
31299;BME280;17927;52.350;13.402;2024-01-07T12:40:48;101878.94;;;4.83;49.91
31299;BME280;17927;52.350;13.402;2024-01-07T12:43:14;101876.19;;;4.85;49.66
31299;BME280;17927;52.350;13.402;2024-01-07T12:45:39;101882.41;;;4.85;49.84